»·PEaware :: N515ND KSBA-KBUR

N515ND :: KSBA-KBUR

FLIGHT INFORMATION

Flight Status: Arrived
Operator: Privately registered:
United States
More flights under this callsign
Pilot: Nick C. (23735)
Aircraft: CESSNA 172 SKYHAWK
(C172)
More flights by this aircraft type
Origin: KSBA Santa Barbara Mun
United States
Destination: KBUR Bob Hope-Burbank
United States
More flights between these airports :: More routes between these airports
Route: FIM
File this flight plan on PilotEdge
Remarks:
Altitude:
(Current/Filed)
7,500ft
Speed:
(Current/Filed)
90kts
Departed: 21-Nov-20 05:58 PM
Arrived: 21-Nov-20 06:40 PM
Distance/Time
Traveled:
74nm/0:42
Distance/Time
To Go:
Arrived

Flight Plot

Page will automatically refresh every two minutes.


Map Options




Map Legend


Flown Route
Filed Route
Departure Airport
Arrival Airport
Navaid (VOR, NDB)
Fix

Horizontal Profiles

Position Reports

Time Latitude Longitude Heading Altitude Ground
Speed
21-Nov-20 17:36 34.422664 -119.835593 340 10ft 0kts
21-Nov-20 17:37 34.422664 -119.835593 340 10ft 0kts
21-Nov-20 17:38 34.422664 -119.835593 340 10ft 0kts
21-Nov-20 17:39 34.422664 -119.835593 340 10ft 0kts
21-Nov-20 17:40 34.422664 -119.835593 340 10ft 0kts
21-Nov-20 17:41 34.422664 -119.835593 340 10ft 0kts
21-Nov-20 17:42 34.422664 -119.835593 340 10ft 0kts
21-Nov-20 17:43 34.422664 -119.835593 340 10ft 0kts
21-Nov-20 17:44 34.422664 -119.835593 340 10ft 0kts
21-Nov-20 17:45 34.422664 -119.835593 340 10ft 0kts
21-Nov-20 17:46 34.422664 -119.835593 340 10ft 0kts
21-Nov-20 17:47 34.422664 -119.835593 340 10ft 0kts
21-Nov-20 17:48 34.422664 -119.835593 340 10ft 0kts
21-Nov-20 17:50 34.422664 -119.835593 340 10ft 0kts
21-Nov-20 17:51 34.422674 -119.835630 275 10ft 0kts
21-Nov-20 17:52 34.422979 -119.837297 346 12ft 8kts
21-Nov-20 17:53 34.426873 -119.838398 345 11ft 14kts
21-Nov-20 17:54 34.430659 -119.839752 264 14ft 0kts
21-Nov-20 17:55 34.430659 -119.839752 264 14ft 0kts
21-Nov-20 17:56 34.430659 -119.839752 264 14ft 0kts
21-Nov-20 17:57 34.430542 -119.840187 221 14ft 9kts
21-Nov-20 17:58 34.414068 -119.833242 164 757ft 78kts
21-Nov-20 17:59 34.393461 -119.823199 164 1488ft 83kts
21-Nov-20 18:00 34.371602 -119.812384 163 1498ft 91kts
21-Nov-20 18:01 34.347603 -119.799239 141 1625ft 94kts
21-Nov-20 18:02 34.349073 -119.768631 89 2655ft 94kts
21-Nov-20 18:03 34.352779 -119.737546 80 3646ft 93kts
21-Nov-20 18:04 34.358557 -119.707738 78 4575ft 93kts
21-Nov-20 18:04 34.368103 -119.685564 42 5301ft 92kts
21-Nov-20 18:06 34.375867 -119.650028 73 6224ft 98kts
21-Nov-20 18:07 34.381152 -119.617918 84 6999ft 97kts
21-Nov-20 18:07 34.383167 -119.590531 91 7482ft 102kts
21-Nov-20 18:09 34.380258 -119.546582 94 7552ft 121kts
21-Nov-20 18:09 34.379088 -119.511353 94 7499ft 126kts
21-Nov-20 18:11 34.382519 -119.462937 89 7564ft 120kts
21-Nov-20 18:11 34.377055 -119.429612 111 7588ft 119kts
21-Nov-20 18:12 34.381916 -119.389340 82 7497ft 127kts
21-Nov-20 18:13 34.383958 -119.347758 81 7500ft 128kts
21-Nov-20 18:14 34.382141 -119.306173 92 7474ft 130kts
21-Nov-20 18:15 34.381812 -119.263778 90 7519ft 123kts
21-Nov-20 18:16 34.381737 -119.222469 94 7605ft 117kts
21-Nov-20 18:17 34.378652 -119.181436 97 7559ft 124kts
21-Nov-20 18:18 34.380462 -119.139407 88 7524ft 127kts
21-Nov-20 18:19 34.381092 -119.097182 96 7521ft 123kts
21-Nov-20 18:20 34.377570 -119.056649 100 7514ft 126kts
21-Nov-20 18:21 34.374061 -119.015034 100 7557ft 119kts
21-Nov-20 18:22 34.367471 -118.975878 109 7513ft 127kts
21-Nov-20 18:23 34.363874 -118.933723 96 7508ft 120kts
21-Nov-20 18:24 34.360119 -118.893256 103 7539ft 119kts
21-Nov-20 18:25 34.344472 -118.859583 101 7463ft 126kts
21-Nov-20 18:26 34.338011 -118.820530 107 7555ft 119kts
21-Nov-20 18:27 34.329352 -118.781548 108 7596ft 116kts
21-Nov-20 18:28 34.316723 -118.743480 113 7484ft 127kts
21-Nov-20 18:29 34.303770 -118.705768 108 7532ft 125kts
21-Nov-20 18:30 34.292326 -118.666181 105 7540ft 123kts
21-Nov-20 18:31 34.281749 -118.625596 108 7428ft 129kts
21-Nov-20 18:32 34.267355 -118.585713 109 7030ft 117kts
21-Nov-20 18:33 34.251554 -118.548007 120 6218ft 128kts
21-Nov-20 18:34 34.229787 -118.511546 126 5345ft 131kts
21-Nov-20 18:35 34.209026 -118.475341 115 4454ft 109kts
21-Nov-20 18:36 34.202681 -118.440645 100 3441ft 103kts
21-Nov-20 18:37 34.199664 -118.407113 99 2194ft 94kts
21-Nov-20 18:38 34.198095 -118.379983 94 1359ft 62kts
21-Nov-20 18:39 34.197765 -118.361914 93 718ft 28kts
21-Nov-20 18:40 34.197028 -118.360273 175 714ft 0kts
21-Nov-20 18:41 34.196849 -118.361393 270 716ft 19kts
21-Nov-20 18:42 34.196210 -118.363448 358 715ft 0kts

Navigation Log

Ident Type
Flight plan parsing failed, navigation log unavailable